createdAt,value
2023-04-16T00:00:50.293Z,29.23
2023-04-16T00:05:55.995Z,29.41
2023-04-16T00:10:58.945Z,29.41
2023-04-16T00:16:01.941Z,29.74
2023-04-16T00:21:05.202Z,29.79
2023-04-16T00:26:08.915Z,29.83
2023-04-16T00:31:11.953Z,29.86
2023-04-16T00:36:17.622Z,29.77
2023-04-16T00:41:20.626Z,30.18
2023-04-16T00:46:24.928Z,30.54
2023-04-16T00:51:27.982Z,30.42
2023-04-16T00:56:31.260Z,30.98
2023-04-16T01:01:33.908Z,31.28
2023-04-16T01:06:36.548Z,31.07
2023-04-16T01:11:40.050Z,31.51
2023-04-16T01:16:43.402Z,31.04
2023-04-16T01:21:46.840Z,31.25
2023-04-16T01:26:49.385Z,31.61
2023-04-16T01:31:52.278Z,31.75
2023-04-16T01:37:04.495Z,32.30
2023-04-16T01:42:07.182Z,31.98
2023-04-16T01:47:10.152Z,31.93
2023-04-16T01:52:13.492Z,31.39
2023-04-16T01:57:16.659Z,31.97
2023-04-16T02:02:20.190Z,32.10
2023-04-16T02:07:23.522Z,31.95
2023-04-16T02:12:26.976Z,32.06
2023-04-16T02:17:30.193Z,32.00
2023-04-16T02:22:44.403Z,32.24
2023-04-16T02:27:51.043Z,32.49
2023-04-16T02:33:21.996Z,32.52
2023-04-16T02:38:39.791Z,32.32
2023-04-16T02:43:46.528Z,31.60
2023-04-16T02:48:49.246Z,31.52
2023-04-16T02:54:01.247Z,31.63
2023-04-16T02:59:04.276Z,31.49
2023-04-16T03:04:07.754Z,32.21
2023-04-16T03:09:11.130Z,31.95
2023-04-16T03:14:27.163Z,31.72
2023-04-16T03:19:32.130Z,31.53
2023-04-16T03:24:34.991Z,30.87
2023-04-16T03:29:38.876Z,30.85
2023-04-16T03:34:43.948Z,30.44
2023-04-16T03:39:47.237Z,30.28
2023-04-16T03:44:51.578Z,29.58
2023-04-16T03:49:54.496Z,28.82
2023-04-16T03:54:57.313Z,28.57
2023-04-16T04:00:02.972Z,28.60
2023-04-16T04:05:19.106Z,27.86
2023-04-16T04:10:24.175Z,27.22
2023-04-16T04:15:27.311Z,26.80
2023-04-16T04:20:30.831Z,26.54
2023-04-16T04:25:34.080Z,26.43
2023-04-16T04:30:36.749Z,25.80
2023-04-16T04:35:44.111Z,25.66
2023-04-16T04:40:47.677Z,25.19
2023-04-16T04:45:52.707Z,24.93
2023-04-16T04:50:59.679Z,24.25
2023-04-16T04:56:12.122Z,23.94
2023-04-16T05:01:25.081Z,23.88
2023-04-16T05:06:29.606Z,23.50
2023-04-16T05:11:34.812Z,23.39
2023-04-16T05:16:38.348Z,22.73
2023-04-16T05:21:41.451Z,22.69
2023-04-16T05:26:50.489Z,22.30
2023-04-16T05:31:53.446Z,22.40
2023-04-16T05:37:01.109Z,22.33
2023-04-16T05:42:03.959Z,22.52
2023-04-16T05:47:09.609Z,21.77
2023-04-16T05:52:15.617Z,21.89
2023-04-16T05:57:20.605Z,21.45
2023-04-16T06:02:26.614Z,21.09
2023-04-16T06:07:29.799Z,21.28
2023-04-16T06:12:44.731Z,20.67
2023-04-16T06:17:50.032Z,20.69
2023-04-16T06:23:00.145Z,20.56
2023-04-16T06:28:06.247Z,20.44
2023-04-16T06:33:09.162Z,19.81
2023-04-16T06:38:15.675Z,19.98
2023-04-16T06:43:18.523Z,19.23
2023-04-16T06:48:30.340Z,19.03
2023-04-16T06:53:36.743Z,19.02
2023-04-16T06:58:39.748Z,18.79
2023-04-16T07:03:44.583Z,18.28
2023-04-16T07:08:49.758Z,18.38
2023-04-16T07:13:56.587Z,18.30
2023-04-16T07:19:11.588Z,18.24
2023-04-16T07:24:14.457Z,18.07
2023-04-16T07:29:17.136Z,18.19
2023-04-16T07:34:20.164Z,18.18
2023-04-16T07:39:23.644Z,17.90
2023-04-16T07:44:26.909Z,17.84
2023-04-16T07:49:29.660Z,17.50
2023-04-16T07:54:32.432Z,17.00
2023-04-16T07:59:35.069Z,16.69
2023-04-16T08:04:37.990Z,16.15
2023-04-16T08:09:52.118Z,16.20
2023-04-16T08:14:54.852Z,16.53
2023-04-16T08:19:58.217Z,16.02
2023-04-16T08:25:01.118Z,16.15
2023-04-16T08:30:04.536Z,15.80
2023-04-16T08:35:07.516Z,16.04
2023-04-16T08:40:10.484Z,15.45
2023-04-16T08:45:18.468Z,15.63
2023-04-16T08:50:26.175Z,15.97
2023-04-16T08:55:39.439Z,15.95
2023-04-16T09:00:43.764Z,16.00
2023-04-16T09:05:47.334Z,16.44
2023-04-16T09:10:51.013Z,16.26
2023-04-16T09:15:54.441Z,16.33
2023-04-16T09:20:57.746Z,16.46
2023-04-16T09:26:00.547Z,17.13
2023-04-16T09:31:21.912Z,16.70
2023-04-16T09:36:24.649Z,16.95
2023-04-16T09:41:32.045Z,16.76
2023-04-16T09:46:36.551Z,16.51
2023-04-16T09:51:42.114Z,15.97
2023-04-16T09:56:46.613Z,16.22
2023-04-16T10:01:50.652Z,16.07
2023-04-16T10:07:05.226Z,16.24
2023-04-16T10:12:07.960Z,16.45
2023-04-16T10:17:10.941Z,16.15
2023-04-16T10:22:14.014Z,16.02
2023-04-16T10:27:17.294Z,15.84
2023-04-16T10:32:21.959Z,15.98
2023-04-16T10:37:31.432Z,16.32
2023-04-16T10:42:34.732Z,16.18
2023-04-16T10:47:40.388Z,15.93
2023-04-16T10:52:43.098Z,15.93
2023-04-16T10:57:50.005Z,15.75
2023-04-16T11:02:55.713Z,15.62
2023-04-16T11:08:14.558Z,15.28
2023-04-16T11:13:18.954Z,15.90
2023-04-16T11:18:21.695Z,16.10
2023-04-16T11:23:24.322Z,15.99
2023-04-16T11:28:34.643Z,15.63
2023-04-16T11:33:38.213Z,15.89
2023-04-16T11:38:43.613Z,16.03
2023-04-16T11:43:46.195Z,15.59
2023-04-16T11:48:49.808Z,15.87
2023-04-16T11:53:53.815Z,15.57
2023-04-16T11:59:13.228Z,15.67
2023-04-16T12:04:19.380Z,15.70
2023-04-16T12:09:27.473Z,15.86
2023-04-16T12:14:30.852Z,15.69
2023-04-16T12:19:33.654Z,15.66
2023-04-16T12:24:37.438Z,15.77
2023-04-16T12:29:40.185Z,16.26
2023-04-16T12:34:52.074Z,16.21
2023-04-16T12:39:55.222Z,16.15
2023-04-16T12:44:57.907Z,16.12
2023-04-16T12:50:00.807Z,16.08
2023-04-16T12:55:03.521Z,16.04
2023-04-16T13:00:07.011Z,16.08
2023-04-16T13:05:10.302Z,15.80
2023-04-16T13:10:15.075Z,15.68
2023-04-16T13:15:18.171Z,15.84
2023-04-16T13:20:22.448Z,15.87
2023-04-16T13:25:26.658Z,15.73
2023-04-16T13:30:29.665Z,16.35
2023-04-16T13:35:32.396Z,16.26
2023-04-16T13:40:35.057Z,16.47
2023-04-16T13:45:38.555Z,16.64
2023-04-16T13:50:41.322Z,16.72
2023-04-16T13:55:44.337Z,16.95
2023-04-16T14:00:47.409Z,16.85
2023-04-16T14:05:50.046Z,16.71
2023-04-16T14:10:53.946Z,16.58
2023-04-16T14:15:58.414Z,16.74
2023-04-16T14:21:02.324Z,16.56
2023-04-16T14:26:05.103Z,16.53
2023-04-16T14:31:07.706Z,16.56
2023-04-16T14:36:10.476Z,16.78
2023-04-16T14:41:13.320Z,16.61
2023-04-16T14:46:17.907Z,16.73
2023-04-16T14:51:20.702Z,16.99
2023-04-16T14:56:23.471Z,17.17
2023-04-16T15:01:26.325Z,17.39
2023-04-16T15:06:29.022Z,17.45
2023-04-16T15:11:31.689Z,17.60
2023-04-16T15:16:34.478Z,17.41
2023-04-16T15:21:37.205Z,18.02
2023-04-16T15:26:40.045Z,17.94
2023-04-16T15:31:42.980Z,17.68
2023-04-16T15:36:45.725Z,17.93
2023-04-16T15:42:00.632Z,18.24
2023-04-16T15:47:06.492Z,18.11
2023-04-16T15:52:12.115Z,18.18
2023-04-16T15:57:14.778Z,18.19
2023-04-16T16:02:17.548Z,18.33
2023-04-16T16:07:20.714Z,18.57
2023-04-16T16:12:23.635Z,18.31
2023-04-16T16:17:26.412Z,19.08
2023-04-16T16:22:29.942Z,19.15
2023-04-16T16:27:32.631Z,19.51
2023-04-16T16:32:35.548Z,19.51
2023-04-16T16:37:38.955Z,19.46
2023-04-16T16:42:41.622Z,19.59
2023-04-16T16:47:44.360Z,19.74
2023-04-16T16:52:47.068Z,19.96
2023-04-16T16:57:50.255Z,20.06
2023-04-16T17:02:53.379Z,20.23
2023-04-16T17:07:56.057Z,20.53
2023-04-16T17:12:58.778Z,20.55
2023-04-16T17:18:01.695Z,20.64
2023-04-16T17:23:04.466Z,20.80
2023-04-16T17:28:07.100Z,20.90
2023-04-16T17:33:09.908Z,21.15
2023-04-16T17:38:12.689Z,21.17
2023-04-16T17:43:15.369Z,21.32
2023-04-16T17:48:18.105Z,21.24
2023-04-16T17:53:21.480Z,21.30
2023-04-16T17:58:26.310Z,21.16
2023-04-16T18:03:29.763Z,21.31
2023-04-16T18:08:33.924Z,21.42
2023-04-16T18:13:40.149Z,21.43
2023-04-16T18:18:44.112Z,21.21
2023-04-16T18:23:46.911Z,21.37
2023-04-16T18:28:49.564Z,21.50
2023-04-16T18:39:02.048Z,21.88
2023-04-16T18:44:05.361Z,22.13
2023-04-16T18:49:08.174Z,22.28
2023-04-16T18:54:11.283Z,22.31
2023-04-16T18:59:14.007Z,22.51
2023-04-16T19:04:17.215Z,22.49
2023-04-16T19:09:20.160Z,22.62
2023-04-16T19:14:22.807Z,22.65
2023-04-16T19:19:25.591Z,22.96
2023-04-16T19:24:28.121Z,22.76
2023-04-16T19:29:34.573Z,22.77
2023-04-16T19:34:37.286Z,22.66
2023-04-16T19:39:39.959Z,23.02
2023-04-16T19:44:42.569Z,22.99
2023-04-16T19:49:46.593Z,23.40
2023-04-16T19:54:49.676Z,22.94
2023-04-16T19:59:54.048Z,23.28
2023-04-16T20:04:57.776Z,23.31
2023-04-16T20:10:00.408Z,24.06
2023-04-16T20:15:03.188Z,24.47
2023-04-16T20:20:14.154Z,24.03
2023-04-16T20:25:19.406Z,24.39
2023-04-16T20:30:24.603Z,24.47
2023-04-16T20:35:27.279Z,24.67
2023-04-16T20:40:30.456Z,24.33
2023-04-16T20:45:38.321Z,25.00
2023-04-16T20:50:40.946Z,24.67
2023-04-16T20:55:43.854Z,24.90
2023-04-16T21:00:51.522Z,24.74
2023-04-16T21:05:55.560Z,25.32
2023-04-16T21:10:58.431Z,25.12
2023-04-16T21:16:01.304Z,25.67
2023-04-16T21:21:04.278Z,25.52
2023-04-16T21:26:07.031Z,25.28
2023-04-16T21:31:09.895Z,25.22
2023-04-16T21:36:12.532Z,25.64
2023-04-16T21:41:15.128Z,25.72
2023-04-16T21:46:17.881Z,25.84
2023-04-16T21:51:29.070Z,25.93
2023-04-16T21:56:31.845Z,25.78
2023-04-16T22:01:34.523Z,25.61
2023-04-16T22:06:37.432Z,25.51
2023-04-16T22:11:40.860Z,25.43
2023-04-16T22:16:44.973Z,25.40
2023-04-16T22:21:48.713Z,25.67
2023-04-16T22:26:51.336Z,25.42
2023-04-16T22:31:55.267Z,25.43
2023-04-16T22:36:58.157Z,25.24
2023-04-16T22:42:00.885Z,25.68
2023-04-16T22:47:03.687Z,25.25
2023-04-16T22:52:06.415Z,25.28
2023-04-16T22:57:09.114Z,25.14
2023-04-16T23:02:11.969Z,25.17
2023-04-16T23:07:16.526Z,26.21
2023-04-16T23:12:19.109Z,25.75
2023-04-16T23:17:21.766Z,25.99
2023-04-16T23:22:24.474Z,25.69
2023-04-16T23:27:27.126Z,25.60
2023-04-16T23:32:29.861Z,25.65
2023-04-16T23:37:32.546Z,25.96
2023-04-16T23:42:35.235Z,26.04
2023-04-16T23:47:38.191Z,26.21
2023-04-16T23:52:41.139Z,26.23
2023-04-16T23:57:43.766Z,26.47
